Alsace — PB4786 — position and weather

sailwx.info

Track history (hours):
 
Tides and Currents Weather Stations Pressure Air Temp Water Temp Dewpoint Dewpoint Depression Visibility Wind Speed Wind Dir Waves Ship Positions

Alsace

Last reported at 2016-May-25 00:34 UTC. Time now 2016-May-25 01:28 UTC.
Position N 51°21' E 004°16'.

Length 178 m; draft 1.8 m.

Type: Ship. MMSI: 244660556.

Date/timePositionNaut miles runAvg speedWind from/ knotsBaromVisibWave heightAir tempDewpointWater temp
2016-May-25 00:34N 51°21' E 004°16'0 0.0
2016-May-24 23:33N 51°21' E 004°16'0 0.0
2016-May-24 22:33N 51°21' E 004°16'3 3.5
2016-May-24 21:34N 51°18' E 004°16'0 0.0
2016-May-24 20:34N 51°18' E 004°16'0 0.2
2016-May-24 19:33N 51°17' E 004°16'1 1.0
2016-May-24 18:34N 51°18' E 004°17'0 0.4
2016-May-24 17:33N 51°18' E 004°18'0 0.0
2016-May-24 16:33N 51°18' E 004°18'0 0.0
2016-May-24 15:33N 51°18' E 004°18'0 0.0
2016-May-24 14:34N 51°18' E 004°18'2 1.9
2016-May-24 13:34N 51°17' E 004°20'0 0.2
2016-May-24 12:33N 51°16' E 004°20'0 0.1
2016-May-24 11:34N 51°16' E 004°20'2 1.8
2016-May-24 10:33N 51°18' E 004°20'1 1.3
2016-May-24 09:33N 51°19' E 004°19'0 0.0
2016-May-24 08:33N 51°19' E 004°19'0 0.0
2016-May-24 07:33N 51°19' E 004°19'0 0.0
2016-May-24 06:33N 51°19' E 004°19'0 0.0
2016-May-24 05:33N 51°19' E 004°19'0 0.0
2016-May-24 04:33N 51°19' E 004°19'0 0.0
2016-May-24 03:33N 51°19' E 004°19'0 0.0
2016-May-24 02:33N 51°19' E 004°19'0 0.0
2016-May-24 01:33N 51°19' E 004°19'0 0.5
2016-May-24 00:33N 51°19' E 004°20'5 5.1
2016-May-23 23:32N 51°24' E 004°15'5 4.1
2016-May-23 22:19N 51°29' E 004°13'18 4.9
2016-May-23 18:32N 51°42' E 004°34'9 8.7
2016-May-23 17:33N 51°47' E 004°45'9 8.8
2016-May-23 16:33N 51°49' E 004°59'56 4.3
2016-May-23 03:33N 51°40' E 006°29'29 7.2
2016-May-22 23:33N 51°13' E 006°46'23 6.9
2016-May-22 20:09N 50°52' E 007°02'7 8.0
2016-May-22 19:16N 50°46' E 007°06'100 7.9
2016-May-22 06:33N 49°21' E 008°30'8 7.7
2016-May-22 05:33N 49°15' E 008°24'10 9.6
2016-May-22 04:33N 49°05' E 008°21'  
2016-May-19 21:32N 47°35' E 007°36'0 0.0
2016-May-19 20:33N 47°35' E 007°36'88 1.8
2016-May-17 20:16N 48°59' E 008°16'3 4.6
2016-May-17 19:33N 49°02' E 008°18'5 4.9
2016-May-17 18:33N 49°06' E 008°22'5 4.9
2016-May-17 17:33N 49°11' E 008°23'5 4.8
2016-May-17 16:33N 49°15' E 008°26'4 2.9
2016-May-17 15:17N 49°19' E 008°29'96 3.7
2016-May-16 13:31N 50°41' E 007°11'5 5.0
2016-May-16 12:33N 50°45' E 007°06'8 3.7
2016-May-16 10:23N 50°52' E 007°02'3 3.5
2016-May-16 09:28N 50°55' E 006°59'14 4.2
2016-May-16 06:15N 51°07' E 006°51'2 3.1
2016-May-16 05:33N 51°09' E 006°50'3 3.1
2016-May-16 04:33N 51°11' E 006°45'2 2.3
2016-May-16 03:33N 51°13' E 006°46'16 3.7
2016-May-15 23:07N 51°29' E 006°41'3 3.2
2016-May-15 22:14N 51°32' E 006°41'3 3.1
2016-May-15 21:13N 51°34' E 006°37'4 5.0
2016-May-15 20:23N 51°38' E 006°36'4 4.6
2016-May-15 19:27N 51°40' E 006°30'9 4.8
2016-May-15 17:29N 51°47' E 006°19'49 3.7
2016-May-15 04:19N 51°49' E 005°01'5 7.1
2016-May-15 03:33N 51°48' E 004°52'7 7.2
2016-May-15 02:33N 51°44' E 004°43'9 8.5
2016-May-15 01:29N 51°42' E 004°29'  
Track history (hours):
 
Tides and Currents Weather Stations Pressure Air Temp Water Temp Dewpoint Dewpoint Depression Visibility Wind Speed Wind Dir Waves Ship Positions

Alsace

Last reported at 2016-May-25 00:34 UTC. Time now 2016-May-25 01:28 UTC.
Position N 51°21' E 004°16'.

Length 178 m; draft 1.8 m.

Type: Ship. MMSI: 244660556.

Date/timePositionNaut miles runAvg speedWind from/ knotsBaromVisibWave heightAir tempDewpointWater temp
2016-May-25 00:34N 51°21' E 004°16'0 0.0
2016-May-24 23:33N 51°21' E 004°16'0 0.0
2016-May-24 22:33N 51°21' E 004°16'3 3.5
2016-May-24 21:34N 51°18' E 004°16'0 0.0
2016-May-24 20:34N 51°18' E 004°16'0 0.2
2016-May-24 19:33N 51°17' E 004°16'1 1.0
2016-May-24 18:34N 51°18' E 004°17'0 0.4
2016-May-24 17:33N 51°18' E 004°18'0 0.0
2016-May-24 16:33N 51°18' E 004°18'0 0.0
2016-May-24 15:33N 51°18' E 004°18'0 0.0
2016-May-24 14:34N 51°18' E 004°18'2 1.9
2016-May-24 13:34N 51°17' E 004°20'0 0.2
2016-May-24 12:33N 51°16' E 004°20'0 0.1
2016-May-24 11:34N 51°16' E 004°20'2 1.8
2016-May-24 10:33N 51°18' E 004°20'1 1.3
2016-May-24 09:33N 51°19' E 004°19'0 0.0
2016-May-24 08:33N 51°19' E 004°19'0 0.0
2016-May-24 07:33N 51°19' E 004°19'0 0.0
2016-May-24 06:33N 51°19' E 004°19'0 0.0
2016-May-24 05:33N 51°19' E 004°19'0 0.0
2016-May-24 04:33N 51°19' E 004°19'0 0.0
2016-May-24 03:33N 51°19' E 004°19'0 0.0
2016-May-24 02:33N 51°19' E 004°19'0 0.0
2016-May-24 01:33N 51°19' E 004°19'0 0.5
2016-May-24 00:33N 51°19' E 004°20'5 5.1
2016-May-23 23:32N 51°24' E 004°15'5 4.1
2016-May-23 22:19N 51°29' E 004°13'18 4.9
2016-May-23 18:32N 51°42' E 004°34'9 8.7
2016-May-23 17:33N 51°47' E 004°45'9 8.8
2016-May-23 16:33N 51°49' E 004°59'56 4.3
2016-May-23 03:33N 51°40' E 006°29'29 7.2
2016-May-22 23:33N 51°13' E 006°46'23 6.9
2016-May-22 20:09N 50°52' E 007°02'7 8.0
2016-May-22 19:16N 50°46' E 007°06'100 7.9
2016-May-22 06:33N 49°21' E 008°30'8 7.7
2016-May-22 05:33N 49°15' E 008°24'10 9.6
2016-May-22 04:33N 49°05' E 008°21'  
2016-May-19 21:32N 47°35' E 007°36'0 0.0
2016-May-19 20:33N 47°35' E 007°36'88 1.8
2016-May-17 20:16N 48°59' E 008°16'3 4.6
2016-May-17 19:33N 49°02' E 008°18'5 4.9
2016-May-17 18:33N 49°06' E 008°22'5 4.9
2016-May-17 17:33N 49°11' E 008°23'5 4.8
2016-May-17 16:33N 49°15' E 008°26'4 2.9
2016-May-17 15:17N 49°19' E 008°29'96 3.7
2016-May-16 13:31N 50°41' E 007°11'5 5.0
2016-May-16 12:33N 50°45' E 007°06'8 3.7
2016-May-16 10:23N 50°52' E 007°02'3 3.5
2016-May-16 09:28N 50°55' E 006°59'14 4.2
2016-May-16 06:15N 51°07' E 006°51'2 3.1
2016-May-16 05:33N 51°09' E 006°50'3 3.1
2016-May-16 04:33N 51°11' E 006°45'2 2.3
2016-May-16 03:33N 51°13' E 006°46'16 3.7
2016-May-15 23:07N 51°29' E 006°41'3 3.2
2016-May-15 22:14N 51°32' E 006°41'3 3.1
2016-May-15 21:13N 51°34' E 006°37'4 5.0
2016-May-15 20:23N 51°38' E 006°36'4 4.6
2016-May-15 19:27N 51°40' E 006°30'9 4.8
2016-May-15 17:29N 51°47' E 006°19'49 3.7
2016-May-15 04:19N 51°49' E 005°01'5 7.1
2016-May-15 03:33N 51°48' E 004°52'7 7.2
2016-May-15 02:33N 51°44' E 004°43'9 8.5
2016-May-15 01:29N 51°42' E 004°29'  

Dump ship's entire track history